sensor_id;sensor_type;location;lat;lon;timestamp;pressure;altitude;pressure_sealevel;temperature;humidity
68793;BME280;55778;54.346;10.210;2023-03-17T00:00:40;100777.53;;;5.76;58.42
68793;BME280;55778;54.346;10.210;2023-03-17T00:03:07;100771.28;;;5.75;58.38
68793;BME280;55778;54.346;10.210;2023-03-17T00:05:35;100782.31;;;5.72;58.47
68793;BME280;55778;54.346;10.210;2023-03-17T00:08:06;100780.69;;;5.70;58.61
68793;BME280;55778;54.346;10.210;2023-03-17T00:10:35;100780.06;;;5.66;59.33
68793;BME280;55778;54.346;10.210;2023-03-17T00:13:01;100775.63;;;5.65;59.43
68793;BME280;55778;54.346;10.210;2023-03-17T00:15:28;100794.66;;;5.64;59.70
68793;BME280;55778;54.346;10.210;2023-03-17T00:17:55;100801.28;;;5.60;59.95
68793;BME280;55778;54.346;10.210;2023-03-17T00:20:26;100803.09;;;5.59;59.39
68793;BME280;55778;54.346;10.210;2023-03-17T00:22:54;100806.91;;;5.57;59.78
68793;BME280;55778;54.346;10.210;2023-03-17T00:25:27;100797.81;;;5.58;59.09
68793;BME280;55778;54.346;10.210;2023-03-17T00:27:53;100790.91;;;5.54;59.69
68793;BME280;55778;54.346;10.210;2023-03-17T00:30:20;100777.63;;;5.51;59.75
68793;BME280;55778;54.346;10.210;2023-03-17T00:32:47;100783.38;;;5.46;59.93
68793;BME280;55778;54.346;10.210;2023-03-17T00:35:26;100776.59;;;5.41;60.32
68793;BME280;55778;54.346;10.210;2023-03-17T00:37:54;100782.00;;;5.41;60.38
68793;BME280;55778;54.346;10.210;2023-03-17T00:40:22;100776.91;;;5.36;60.66
68793;BME280;55778;54.346;10.210;2023-03-17T00:42:50;100775.66;;;5.29;61.11
68793;BME280;55778;54.346;10.210;2023-03-17T00:45:16;100767.22;;;5.21;61.62
68793;BME280;55778;54.346;10.210;2023-03-17T00:47:43;100769.28;;;5.18;61.66
68793;BME280;55778;54.346;10.210;2023-03-17T00:50:17;100771.25;;;5.16;62.01
68793;BME280;55778;54.346;10.210;2023-03-17T00:52:44;100772.78;;;5.07;62.58
68793;BME280;55778;54.346;10.210;2023-03-17T00:55:11;100768.56;;;5.03;62.76
68793;BME280;55778;54.346;10.210;2023-03-17T00:57:37;100763.59;;;4.97;63.18
68793;BME280;55778;54.346;10.210;2023-03-17T01:00:05;100760.16;;;4.95;63.27
68793;BME280;55778;54.346;10.210;2023-03-17T01:02:31;100753.91;;;4.95;63.62
68793;BME280;55778;54.346;10.210;2023-03-17T01:04:57;100756.06;;;4.90;63.41
68793;BME280;55778;54.346;10.210;2023-03-17T01:07:25;100749.03;;;4.87;64.13
68793;BME280;55778;54.346;10.210;2023-03-17T01:09:51;100735.13;;;4.81;64.54
68793;BME280;55778;54.346;10.210;2023-03-17T01:12:16;100729.09;;;4.77;65.26
68793;BME280;55778;54.346;10.210;2023-03-17T01:14:42;100737.31;;;4.76;65.40
68793;BME280;55778;54.346;10.210;2023-03-17T01:17:16;100733.63;;;4.77;65.19
68793;BME280;55778;54.346;10.210;2023-03-17T01:19:43;100724.69;;;4.76;65.13
68793;BME280;55778;54.346;10.210;2023-03-17T01:22:08;100708.69;;;4.73;65.67
68793;BME280;55778;54.346;10.210;2023-03-17T01:24:34;100707.94;;;4.71;66.25
68793;BME280;55778;54.346;10.210;2023-03-17T01:27:00;100718.72;;;4.71;66.14
68793;BME280;55778;54.346;10.210;2023-03-17T01:29:26;100722.31;;;4.72;66.46
68793;BME280;55778;54.346;10.210;2023-03-17T01:31:51;100732.22;;;4.71;66.25
68793;BME280;55778;54.346;10.210;2023-03-17T01:34:17;100727.81;;;4.70;66.42
68793;BME280;55778;54.346;10.210;2023-03-17T01:36:43;100722.53;;;4.69;66.88
68793;BME280;55778;54.346;10.210;2023-03-17T01:39:09;100720.66;;;4.69;67.27
68793;BME280;55778;54.346;10.210;2023-03-17T01:41:35;100720.03;;;4.66;67.60
68793;BME280;55778;54.346;10.210;2023-03-17T01:44:02;100720.88;;;4.66;68.17
68793;BME280;55778;54.346;10.210;2023-03-17T01:46:29;100710.09;;;4.66;67.57
68793;BME280;55778;54.346;10.210;2023-03-17T01:52:05;100700.94;;;4.69;67.33
68793;BME280;55778;54.346;10.210;2023-03-17T01:54:41;100698.47;;;4.66;67.70
68793;BME280;55778;54.346;10.210;2023-03-17T01:57:35;100687.00;;;4.62;68.17
68793;BME280;55778;54.346;10.210;2023-03-17T02:00:12;100687.13;;;4.61;67.99
68793;BME280;55778;54.346;10.210;2023-03-17T02:02:40;100689.28;;;4.56;68.36
68793;BME280;55778;54.346;10.210;2023-03-17T02:05:10;100690.25;;;4.55;68.74
68793;BME280;55778;54.346;10.210;2023-03-17T02:07:36;100693.38;;;4.49;69.24
68793;BME280;55778;54.346;10.210;2023-03-17T02:10:03;100686.28;;;4.48;69.09
68793;BME280;55778;54.346;10.210;2023-03-17T02:12:29;100679.25;;;4.45;69.51
68793;BME280;55778;54.346;10.210;2023-03-17T02:14:55;100677.63;;;4.43;69.48
68793;BME280;55778;54.346;10.210;2023-03-17T02:17:23;100668.91;;;4.39;70.04
68793;BME280;55778;54.346;10.210;2023-03-17T02:19:49;100661.16;;;4.35;69.96
68793;BME280;55778;54.346;10.210;2023-03-17T02:22:16;100666.53;;;4.35;70.24
68793;BME280;55778;54.346;10.210;2023-03-17T02:24:47;100667.50;;;4.34;70.23
68793;BME280;55778;54.346;10.210;2023-03-17T02:27:17;100656.91;;;4.31;70.63
68793;BME280;55778;54.346;10.210;2023-03-17T02:29:44;100648.22;;;4.27;70.63
68793;BME280;55778;54.346;10.210;2023-03-17T02:32:14;100650.91;;;4.27;70.80
68793;BME280;55778;54.346;10.210;2023-03-17T02:34:39;100662.84;;;4.23;71.12
68793;BME280;55778;54.346;10.210;2023-03-17T02:37:06;100662.84;;;4.23;71.16
68793;BME280;55778;54.346;10.210;2023-03-17T02:39:32;100655.63;;;4.24;70.99
68793;BME280;55778;54.346;10.210;2023-03-17T02:41:58;100658.44;;;4.22;71.04
68793;BME280;55778;54.346;10.210;2023-03-17T02:44:24;100656.94;;;4.18;71.80
68793;BME280;55778;54.346;10.210;2023-03-17T02:46:50;100653.16;;;4.21;71.36
68793;BME280;55778;54.346;10.210;2023-03-17T02:49:16;100659.63;;;4.18;71.64
68793;BME280;55778;54.346;10.210;2023-03-17T02:51:42;100662.34;;;4.18;71.76
68793;BME280;55778;54.346;10.210;2023-03-17T02:54:07;100675.81;;;4.18;72.00
68793;BME280;55778;54.346;10.210;2023-03-17T02:56:32;100672.03;;;4.21;71.66
68793;BME280;55778;54.346;10.210;2023-03-17T02:58:58;100673.00;;;4.20;71.89
68793;BME280;55778;54.346;10.210;2023-03-17T03:01:23;100672.47;;;4.14;72.28
68793;BME280;55778;54.346;10.210;2023-03-17T03:03:51;100678.53;;;4.18;72.03
68793;BME280;55778;54.346;10.210;2023-03-17T03:06:17;100665.56;;;4.23;71.93
68793;BME280;55778;54.346;10.210;2023-03-17T03:08:42;100661.91;;;4.24;72.04
68793;BME280;55778;54.346;10.210;2023-03-17T03:11:08;100647.44;;;4.25;72.11
68793;BME280;55778;54.346;10.210;2023-03-17T03:13:33;100644.97;;;4.22;71.96
68793;BME280;55778;54.346;10.210;2023-03-17T03:15:59;100642.16;;;4.24;72.29
68793;BME280;55778;54.346;10.210;2023-03-17T03:18:24;100630.50;;;4.23;72.69
68793;BME280;55778;54.346;10.210;2023-03-17T03:20:50;100630.38;;;4.25;72.66
68793;BME280;55778;54.346;10.210;2023-03-17T03:23:15;100636.66;;;4.25;72.63
68793;BME280;55778;54.346;10.210;2023-03-17T03:25:41;100640.00;;;4.29;72.55
68793;BME280;55778;54.346;10.210;2023-03-17T03:28:07;100630.94;;;4.30;72.17
68793;BME280;55778;54.346;10.210;2023-03-17T03:30:33;100633.53;;;4.31;72.45
68793;BME280;55778;54.346;10.210;2023-03-17T03:33:00;100638.59;;;4.36;72.23
68793;BME280;55778;54.346;10.210;2023-03-17T03:35:26;100644.63;;;4.39;72.00
68793;BME280;55778;54.346;10.210;2023-03-17T03:37:52;100654.22;;;4.43;71.76
68793;BME280;55778;54.346;10.210;2023-03-17T03:40:18;100653.91;;;4.48;71.41
68793;BME280;55778;54.346;10.210;2023-03-17T03:42:43;100652.03;;;4.48;71.77
68793;BME280;55778;54.346;10.210;2023-03-17T03:45:09;100647.53;;;4.49;71.78
68793;BME280;55778;54.346;10.210;2023-03-17T03:47:34;100627.66;;;4.50;71.99
68793;BME280;55778;54.346;10.210;2023-03-17T03:50:00;100603.59;;;4.47;72.10
68793;BME280;55778;54.346;10.210;2023-03-17T03:52:25;100598.19;;;4.47;72.43
68793;BME280;55778;54.346;10.210;2023-03-17T03:54:51;100613.44;;;4.48;71.92
68793;BME280;55778;54.346;10.210;2023-03-17T03:57:16;100618.72;;;4.49;71.92
68793;BME280;55778;54.346;10.210;2023-03-17T03:59:42;100614.16;;;4.50;72.08
68793;BME280;55778;54.346;10.210;2023-03-17T04:02:07;100608.66;;;4.51;72.16
68793;BME280;55778;54.346;10.210;2023-03-17T04:04:32;100589.03;;;4.49;72.32
68793;BME280;55778;54.346;10.210;2023-03-17T04:06:58;100599.72;;;4.51;71.96
68793;BME280;55778;54.346;10.210;2023-03-17T04:09:24;100599.59;;;4.52;72.11
68793;BME280;55778;54.346;10.210;2023-03-17T04:11:49;100601.22;;;4.55;72.07
68793;BME280;55778;54.346;10.210;2023-03-17T04:14:15;100585.03;;;4.55;72.41
68793;BME280;55778;54.346;10.210;2023-03-17T04:16:40;100579.50;;;4.56;72.13
68793;BME280;55778;54.346;10.210;2023-03-17T04:19:06;100576.94;;;4.55;72.14
68793;BME280;55778;54.346;10.210;2023-03-17T04:21:33;100577.81;;;4.55;71.91
68793;BME280;55778;54.346;10.210;2023-03-17T04:23:58;100565.25;;;4.54;72.04
68793;BME280;55778;54.346;10.210;2023-03-17T04:26:23;100587.59;;;4.56;72.24
68793;BME280;55778;54.346;10.210;2023-03-17T04:28:49;100606.50;;;4.56;72.03
68793;BME280;55778;54.346;10.210;2023-03-17T04:31:14;100609.84;;;4.60;72.08
68793;BME280;55778;54.346;10.210;2023-03-17T04:33:40;100596.34;;;4.60;72.26
68793;BME280;55778;54.346;10.210;2023-03-17T04:36:07;100593.66;;;4.60;72.08
68793;BME280;55778;54.346;10.210;2023-03-17T04:38:33;100593.66;;;4.60;72.35
68793;BME280;55778;54.346;10.210;2023-03-17T04:40:58;100567.50;;;4.60;72.13
68793;BME280;55778;54.346;10.210;2023-03-17T04:43:24;100555.00;;;4.59;72.29
68793;BME280;55778;54.346;10.210;2023-03-17T04:45:49;100555.13;;;4.58;72.58
68793;BME280;55778;54.346;10.210;2023-03-17T04:48:16;100554.47;;;4.54;72.41
68793;BME280;55778;54.346;10.210;2023-03-17T04:50:41;100559.25;;;4.51;73.03
68793;BME280;55778;54.346;10.210;2023-03-17T04:53:07;100546.81;;;4.48;73.15
68793;BME280;55778;54.346;10.210;2023-03-17T04:55:33;100542.63;;;4.44;73.54
68793;BME280;55778;54.346;10.210;2023-03-17T04:57:59;100547.38;;;4.41;73.92
68793;BME280;55778;54.346;10.210;2023-03-17T05:00:25;100547.53;;;4.39;74.28
68793;BME280;55778;54.346;10.210;2023-03-17T05:02:50;100570.50;;;4.32;74.66
68793;BME280;55778;54.346;10.210;2023-03-17T05:05:16;100553.38;;;4.33;74.23
68793;BME280;55778;54.346;10.210;2023-03-17T05:07:41;100551.84;;;4.29;74.77
68793;BME280;55778;54.346;10.210;2023-03-17T05:10:09;100555.84;;;4.24;75.03
68793;BME280;55778;54.346;10.210;2023-03-17T05:12:35;100536.31;;;4.20;75.23
68793;BME280;55778;54.346;10.210;2023-03-17T05:15:01;100537.19;;;4.21;75.21
68793;BME280;55778;54.346;10.210;2023-03-17T05:17:26;100533.63;;;4.20;75.25
68793;BME280;55778;54.346;10.210;2023-03-17T05:19:52;100523.81;;;4.19;75.35
68793;BME280;55778;54.346;10.210;2023-03-17T05:22:17;100529.97;;;4.21;75.21
68793;BME280;55778;54.346;10.210;2023-03-17T05:24:43;100539.91;;;4.21;75.21
68793;BME280;55778;54.346;10.210;2023-03-17T05:27:08;100544.41;;;4.20;75.40
68793;BME280;55778;54.346;10.210;2023-03-17T05:29:34;100549.81;;;4.20;75.30
68793;BME280;55778;54.346;10.210;2023-03-17T05:31:59;100547.22;;;4.18;75.27
68793;BME280;55778;54.346;10.210;2023-03-17T05:34:24;100535.59;;;4.18;75.30
68793;BME280;55778;54.346;10.210;2023-03-17T05:36:51;100534.84;;;4.16;75.60
68793;BME280;55778;54.346;10.210;2023-03-17T05:39:16;100534.84;;;4.16;75.27
68793;BME280;55778;54.346;10.210;2023-03-17T05:41:41;100524.16;;;4.14;75.52
68793;BME280;55778;54.346;10.210;2023-03-17T05:44:07;100528.78;;;4.12;75.77
68793;BME280;55778;54.346;10.210;2023-03-17T05:46:33;100527.84;;;4.13;75.92
68793;BME280;55778;54.346;10.210;2023-03-17T05:48:58;100524.50;;;4.10;75.98
68793;BME280;55778;54.346;10.210;2023-03-17T05:51:23;100525.25;;;4.12;75.81
68793;BME280;55778;54.346;10.210;2023-03-17T05:53:49;100529.78;;;4.11;76.10
68793;BME280;55778;54.346;10.210;2023-03-17T05:56:14;100533.34;;;4.12;75.97
68793;BME280;55778;54.346;10.210;2023-03-17T05:58:40;100541.44;;;4.12;76.03
68793;BME280;55778;54.346;10.210;2023-03-17T06:01:05;100547.78;;;4.11;76.28
68793;BME280;55778;54.346;10.210;2023-03-17T06:03:32;100551.22;;;4.13;76.14
68793;BME280;55778;54.346;10.210;2023-03-17T06:05:57;100555.53;;;4.15;75.98
68793;BME280;55778;54.346;10.210;2023-03-17T06:08:25;100548.31;;;4.16;76.17
68793;BME280;55778;54.346;10.210;2023-03-17T06:10:50;100544.84;;;4.14;76.12
68793;BME280;55778;54.346;10.210;2023-03-17T06:13:16;100543.16;;;4.13;76.28
68793;BME280;55778;54.346;10.210;2023-03-17T06:15:41;100536.78;;;4.14;76.29
68793;BME280;55778;54.346;10.210;2023-03-17T06:18:07;100538.28;;;4.18;76.11
68793;BME280;55778;54.346;10.210;2023-03-17T06:20:33;100534.63;;;4.19;76.34
68793;BME280;55778;54.346;10.210;2023-03-17T06:22:59;100539.56;;;4.25;75.93
68793;BME280;55778;54.346;10.210;2023-03-17T06:25:24;100546.56;;;4.28;75.96
68793;BME280;55778;54.346;10.210;2023-03-17T06:27:50;100537.06;;;4.35;75.83
68793;BME280;55778;54.346;10.210;2023-03-17T06:30:19;100525.94;;;4.39;75.46
68793;BME280;55778;54.346;10.210;2023-03-17T06:32:45;100518.59;;;4.41;75.61
68793;BME280;55778;54.346;10.210;2023-03-17T06:35:10;100526.56;;;4.43;75.70
68793;BME280;55778;54.346;10.210;2023-03-17T06:37:37;100527.31;;;4.45;75.60
68793;BME280;55778;54.346;10.210;2023-03-17T06:40:03;100517.38;;;4.45;75.65
68793;BME280;55778;54.346;10.210;2023-03-17T06:42:30;100508.66;;;4.42;75.46
68793;BME280;55778;54.346;10.210;2023-03-17T06:44:55;100502.41;;;4.41;75.47
68793;BME280;55778;54.346;10.210;2023-03-17T06:47:21;100502.81;;;4.48;75.83
68793;BME280;55778;54.346;10.210;2023-03-17T06:49:46;100511.41;;;4.53;75.60
68793;BME280;55778;54.346;10.210;2023-03-17T06:52:12;100516.34;;;4.59;75.15
68793;BME280;55778;54.346;10.210;2023-03-17T06:54:38;100526.81;;;4.63;74.82
68793;BME280;55778;54.346;10.210;2023-03-17T06:57:04;100535.09;;;4.73;74.85
68793;BME280;55778;54.346;10.210;2023-03-17T06:59:29;100533.25;;;4.73;74.42
68793;BME280;55778;54.346;10.210;2023-03-17T07:01:55;100542.72;;;4.79;74.50
68793;BME280;55778;54.346;10.210;2023-03-17T07:04:20;100548.84;;;4.81;74.56
68793;BME280;55778;54.346;10.210;2023-03-17T07:06:45;100542.16;;;4.86;74.34
68793;BME280;55778;54.346;10.210;2023-03-17T07:09:11;100533.81;;;4.89;74.51
68793;BME280;55778;54.346;10.210;2023-03-17T07:11:36;100537.47;;;4.88;74.47
68793;BME280;55778;54.346;10.210;2023-03-17T07:14:02;100531.75;;;4.93;74.21
68793;BME280;55778;54.346;10.210;2023-03-17T07:16:27;100521.94;;;4.92;74.18
68793;BME280;55778;54.346;10.210;2023-03-17T07:18:53;100517.78;;;4.99;74.10
68793;BME280;55778;54.346;10.210;2023-03-17T07:21:22;100511.41;;;5.00;74.10
68793;BME280;55778;54.346;10.210;2023-03-17T07:23:47;100511.78;;;4.95;73.97
68793;BME280;55778;54.346;10.210;2023-03-17T07:26:12;100499.63;;;5.01;74.46
68793;BME280;55778;54.346;10.210;2023-03-17T07:28:38;100506.91;;;5.11;74.18
68793;BME280;55778;54.346;10.210;2023-03-17T07:31:04;100505.44;;;5.18;74.26
68793;BME280;55778;54.346;10.210;2023-03-17T07:33:32;100503.88;;;5.27;73.67
68793;BME280;55778;54.346;10.210;2023-03-17T07:35:58;100519.47;;;5.23;73.44
68793;BME280;55778;54.346;10.210;2023-03-17T07:38:23;100526.00;;;5.32;73.25
68793;BME280;55778;54.346;10.210;2023-03-17T07:40:48;100519.88;;;5.41;72.88
68793;BME280;55778;54.346;10.210;2023-03-17T07:43:15;100523.00;;;5.58;71.93
68793;BME280;55778;54.346;10.210;2023-03-17T07:45:44;100526.31;;;5.73;71.54
68793;BME280;55778;54.346;10.210;2023-03-17T07:48:10;100520.09;;;5.83;70.87
68793;BME280;55778;54.346;10.210;2023-03-17T07:50:36;100516.91;;;5.89;70.90
68793;BME280;55778;54.346;10.210;2023-03-17T07:53:02;100504.97;;;5.92;70.64
68793;BME280;55778;54.346;10.210;2023-03-17T07:55:31;100501.69;;;5.88;70.73
68793;BME280;55778;54.346;10.210;2023-03-17T07:57:57;100497.88;;;5.91;70.83
68793;BME280;55778;54.346;10.210;2023-03-17T08:00:25;100509.28;;;6.05;70.28
68793;BME280;55778;54.346;10.210;2023-03-17T08:02:51;100495.00;;;6.37;69.13
68793;BME280;55778;54.346;10.210;2023-03-17T08:05:17;100496.28;;;6.64;68.50
68793;BME280;55778;54.346;10.210;2023-03-17T08:07:43;100481.97;;;7.05;67.86
68793;BME280;55778;54.346;10.210;2023-03-17T08:10:10;100503.19;;;7.00;66.17
68793;BME280;55778;54.346;10.210;2023-03-17T08:12:38;100502.75;;;7.36;66.71
68793;BME280;55778;54.346;10.210;2023-03-17T08:15:04;100502.94;;;7.44;64.87
68793;BME280;55778;54.346;10.210;2023-03-17T08:17:30;100501.16;;;7.54;64.37
68793;BME280;55778;54.346;10.210;2023-03-17T08:19:55;100504.72;;;7.75;63.00
68793;BME280;55778;54.346;10.210;2023-03-17T08:22:22;100503.72;;;7.76;63.57
68793;BME280;55778;54.346;10.210;2023-03-17T08:24:47;100496.00;;;8.01;62.85
68793;BME280;55778;54.346;10.210;2023-03-17T08:27:14;100485.34;;;8.19;62.16
68793;BME280;55778;54.346;10.210;2023-03-17T08:29:39;100487.22;;;8.18;61.52
68793;BME280;55778;54.346;10.210;2023-03-17T08:32:05;100474.34;;;8.20;61.13
68793;BME280;55778;54.346;10.210;2023-03-17T08:34:31;100473.16;;;8.34;61.72
68793;BME280;55778;54.346;10.210;2023-03-17T08:36:56;100480.44;;;8.34;61.03
68793;BME280;55778;54.346;10.210;2023-03-17T08:39:22;100468.78;;;8.12;61.62
68793;BME280;55778;54.346;10.210;2023-03-17T08:41:48;100479.16;;;8.07;62.53
68793;BME280;55778;54.346;10.210;2023-03-17T08:44:14;100476.38;;;8.18;62.58
68793;BME280;55778;54.346;10.210;2023-03-17T08:46:39;100479.69;;;7.92;62.28
68793;BME280;55778;54.346;10.210;2023-03-17T08:49:06;100470.22;;;7.86;62.84
68793;BME280;55778;54.346;10.210;2023-03-17T08:51:35;100469.38;;;7.86;63.16
68793;BME280;55778;54.346;10.210;2023-03-17T08:54:02;100471.56;;;8.01;63.02
68793;BME280;55778;54.346;10.210;2023-03-17T08:56:28;100475.78;;;8.64;61.26
68793;BME280;55778;54.346;10.210;2023-03-17T08:58:54;100474.50;;;8.87;59.63
68793;BME280;55778;54.346;10.210;2023-03-17T09:01:20;100477.50;;;8.84;59.53
68793;BME280;55778;54.346;10.210;2023-03-17T09:03:47;100469.94;;;9.35;59.39
68793;BME280;55778;54.346;10.210;2023-03-17T09:06:13;100476.09;;;9.37;58.24
68793;BME280;55778;54.346;10.210;2023-03-17T09:08:41;100482.09;;;9.50;58.91
68793;BME280;55778;54.346;10.210;2023-03-17T09:11:14;100481.94;;;10.07;56.26
68793;BME280;55778;54.346;10.210;2023-03-17T09:13:40;100487.66;;;10.14;55.20
68793;BME280;55778;54.346;10.210;2023-03-17T09:16:06;100468.88;;;10.11;56.03
68793;BME280;55778;54.346;10.210;2023-03-17T09:18:35;100467.16;;;10.37;55.53
68793;BME280;55778;54.346;10.210;2023-03-17T09:21:00;100467.41;;;10.26;55.71
68793;BME280;55778;54.346;10.210;2023-03-17T09:23:27;100461.75;;;10.00;55.83
68793;BME280;55778;54.346;10.210;2023-03-17T09:25:53;100465.72;;;9.69;56.77
68793;BME280;55778;54.346;10.210;2023-03-17T09:28:18;100456.53;;;9.70;57.46
68793;BME280;55778;54.346;10.210;2023-03-17T09:30:44;100454.81;;;9.79;56.85
68793;BME280;55778;54.346;10.210;2023-03-17T09:33:10;100446.06;;;9.85;56.83
68793;BME280;55778;54.346;10.210;2023-03-17T09:35:36;100448.44;;;9.97;57.75
68793;BME280;55778;54.346;10.210;2023-03-17T09:38:02;100446.66;;;10.06;57.05
68793;BME280;55778;54.346;10.210;2023-03-17T09:46:30;100441.50;;;9.76;58.59
68793;BME280;55778;54.346;10.210;2023-03-17T09:49:00;100436.09;;;9.57;58.32
68793;BME280;55778;54.346;10.210;2023-03-17T09:51:28;100443.28;;;9.58;58.85
68793;BME280;55778;54.346;10.210;2023-03-17T09:53:59;100444.16;;;9.85;58.62
68793;BME280;55778;54.346;10.210;2023-03-17T09:56:31;100440.16;;;9.89;57.65
68793;BME280;55778;54.346;10.210;2023-03-17T10:01:42;100428.34;;;9.98;57.69
68793;BME280;55778;54.346;10.210;2023-03-17T10:04:09;100428.25;;;9.90;58.46
68793;BME280;55778;54.346;10.210;2023-03-17T10:06:36;100438.84;;;9.93;57.79
68793;BME280;55778;54.346;10.210;2023-03-17T10:17:34;100444.63;;;9.81;57.59
68793;BME280;55778;54.346;10.210;2023-03-17T10:22:37;100437.50;;;9.70;57.74
68793;BME280;55778;54.346;10.210;2023-03-17T10:25:37;100442.25;;;9.95;57.96
68793;BME280;55778;54.346;10.210;2023-03-17T10:28:06;100438.41;;;9.98;57.71
68793;BME280;55778;54.346;10.210;2023-03-17T10:30:33;100418.06;;;9.92;57.62
68793;BME280;55778;54.346;10.210;2023-03-17T10:33:01;100435.78;;;10.06;58.06
68793;BME280;55778;54.346;10.210;2023-03-17T10:35:28;100434.25;;;10.31;57.94
68793;BME280;55778;54.346;10.210;2023-03-17T10:37:53;100442.34;;;10.40;57.71
68793;BME280;55778;54.346;10.210;2023-03-17T10:40:25;100441.91;;;10.45;56.29
68793;BME280;55778;54.346;10.210;2023-03-17T10:43:04;100439.53;;;10.59;56.50
68793;BME280;55778;54.346;10.210;2023-03-17T10:45:35;100437.59;;;10.69;56.26
68793;BME280;55778;54.346;10.210;2023-03-17T10:48:08;100434.56;;;10.90;55.92
68793;BME280;55778;54.346;10.210;2023-03-17T10:50:38;100437.13;;;10.74;55.02
68793;BME280;55778;54.346;10.210;2023-03-17T10:53:21;100426.78;;;10.95;56.34
68793;BME280;55778;54.346;10.210;2023-03-17T10:55:56;100435.78;;;11.13;55.22
68793;BME280;55778;54.346;10.210;2023-03-17T10:58:30;100431.13;;;11.23;54.45
68793;BME280;55778;54.346;10.210;2023-03-17T11:01:05;100422.63;;;11.51;54.04
68793;BME280;55778;54.346;10.210;2023-03-17T11:03:35;100423.16;;;12.06;51.90
68793;BME280;55778;54.346;10.210;2023-03-17T11:06:06;100417.22;;;12.19;51.67
68793;BME280;55778;54.346;10.210;2023-03-17T11:11:31;100399.09;;;12.59;51.61
68793;BME280;55778;54.346;10.210;2023-03-17T11:14:10;100411.22;;;12.07;52.21
68793;BME280;55778;54.346;10.210;2023-03-17T11:16:52;100410.56;;;12.21;51.67
68793;BME280;55778;54.346;10.210;2023-03-17T11:19:19;100398.09;;;12.19;52.92
68793;BME280;55778;54.346;10.210;2023-03-17T11:22:09;100403.47;;;11.94;52.65
68793;BME280;55778;54.346;10.210;2023-03-17T11:25:03;100402.16;;;11.73;53.77
68793;BME280;55778;54.346;10.210;2023-03-17T11:27:33;100402.34;;;11.79;53.68
68793;BME280;55778;54.346;10.210;2023-03-17T11:32:59;100379.84;;;11.77;53.90
68793;BME280;55778;54.346;10.210;2023-03-17T11:35:48;100385.81;;;11.81;54.88
68793;BME280;55778;54.346;10.210;2023-03-17T11:38:28;100377.88;;;11.62;54.97
68793;BME280;55778;54.346;10.210;2023-03-17T11:46:27;100369.22;;;11.49;55.85
68793;BME280;55778;54.346;10.210;2023-03-17T11:49:02;100370.66;;;11.61;56.40
68793;BME280;55778;54.346;10.210;2023-03-17T11:51:42;100372.91;;;11.40;56.03
68793;BME280;55778;54.346;10.210;2023-03-17T11:54:26;100364.91;;;11.38;55.63
68793;BME280;55778;54.346;10.210;2023-03-17T11:56:57;100360.06;;;11.32;56.58
68793;BME280;55778;54.346;10.210;2023-03-17T11:59:28;100360.34;;;11.47;56.25
68793;BME280;55778;54.346;10.210;2023-03-17T12:04:39;100354.22;;;11.70;55.79
68793;BME280;55778;54.346;10.210;2023-03-17T12:10:24;100351.19;;;11.56;56.01
68793;BME280;55778;54.346;10.210;2023-03-17T12:13:17;100343.88;;;11.82;56.07
68793;BME280;55778;54.346;10.210;2023-03-17T12:18:22;100338.41;;;12.40;54.29
68793;BME280;55778;54.346;10.210;2023-03-17T12:26:36;100334.69;;;14.30;49.82
68793;BME280;55778;54.346;10.210;2023-03-17T12:29:10;100337.84;;;14.11;49.29
68793;BME280;55778;54.346;10.210;2023-03-17T12:31:41;100338.81;;;14.34;50.08
68793;BME280;55778;54.346;10.210;2023-03-17T12:34:21;100339.38;;;14.97;48.13
68793;BME280;55778;54.346;10.210;2023-03-17T12:36:50;100335.00;;;15.25;46.48
68793;BME280;55778;54.346;10.210;2023-03-17T12:39:20;100335.34;;;15.08;47.49
68793;BME280;55778;54.346;10.210;2023-03-17T12:45:35;100319.19;;;15.27;47.25
68793;BME280;55778;54.346;10.210;2023-03-17T12:50:53;100322.50;;;15.74;47.52
68793;BME280;55778;54.346;10.210;2023-03-17T12:53:32;100328.16;;;15.58;46.52
68793;BME280;55778;54.346;10.210;2023-03-17T12:56:13;100326.97;;;15.75;46.21
68793;BME280;55778;54.346;10.210;2023-03-17T12:58:48;100332.47;;;16.40;44.81
68793;BME280;55778;54.346;10.210;2023-03-17T13:01:31;100350.59;;;16.49;42.48
68793;BME280;55778;54.346;10.210;2023-03-17T13:04:19;100361.06;;;16.60;40.88
68793;BME280;55778;54.346;10.210;2023-03-17T13:07:07;100357.16;;;16.48;40.93
68793;BME280;55778;54.346;10.210;2023-03-17T13:17:45;100342.78;;;16.53;41.87
68793;BME280;55778;54.346;10.210;2023-03-17T13:20:16;100349.69;;;16.63;41.41
68793;BME280;55778;54.346;10.210;2023-03-17T13:23:12;100340.78;;;16.61;41.67
68793;BME280;55778;54.346;10.210;2023-03-17T13:38:49;100355.72;;;16.23;41.58
68793;BME280;55778;54.346;10.210;2023-03-17T13:44:37;100361.16;;;16.02;43.04
68793;BME280;55778;54.346;10.210;2023-03-17T13:47:15;100348.00;;;15.98;42.59
68793;BME280;55778;54.346;10.210;2023-03-17T13:49:50;100353.91;;;16.16;42.78
68793;BME280;55778;54.346;10.210;2023-03-17T13:52:29;100350.66;;;16.41;42.28
68793;BME280;55778;54.346;10.210;2023-03-17T13:56:02;100350.66;;;16.56;41.62
68793;BME280;55778;54.346;10.210;2023-03-17T13:57:54;100347.97;;;16.62;41.87
68793;BME280;55778;54.346;10.210;2023-03-17T14:00:25;100354.34;;;16.63;41.54
68793;BME280;55778;54.346;10.210;2023-03-17T14:03:04;100342.03;;;16.80;41.58
68793;BME280;55778;54.346;10.210;2023-03-17T14:05:33;100347.41;;;16.88;41.49
68793;BME280;55778;54.346;10.210;2023-03-17T14:08:04;100352.34;;;16.92;40.65
68793;BME280;55778;54.346;10.210;2023-03-17T14:10:33;100351.19;;;16.87;41.12
68793;BME280;55778;54.346;10.210;2023-03-17T14:15:52;100334.63;;;16.59;41.75